Flight Track Log - Related Links

Times and Time Zones

All times are in EDT time to prevent confusion due to time zone crossing. See the CES2232 flight status page for this flight to view local times or setup timezone preferences in your user account.

Time Position Orientation Groundspeed Altitude Reporting Facility
EDT Latitude Longitude Course Direction KTS MPH feet Rate Location/Type
Thu 08:41:00 AM 33.5425 105.7654 68° East  Level Estimated
Thu 08:42:00 AM 33.5728 105.8608 69° East  Level Estimated
Thu 08:43:00 AM 33.6031 105.9563 69° East  Level Estimated
Thu 08:44:00 AM 33.6333 106.0519 69° East  Level Estimated
Thu 08:45:00 AM 33.6634 106.1475 69° East  Level Estimated
Thu 08:46:00 AM 33.6934 106.2432 69° East  Level Estimated
Thu 08:47:00 AM 33.7234 106.3389 69° East  Level Estimated
Thu 08:48:00 AM 33.7532 106.4348 69° East  Level Estimated
Thu 08:49:00 AM 33.7831 106.5307 69° East  Level Estimated
Thu 08:50:00 AM 33.8128 106.6266 70° East  Level Estimated
Thu 08:51:00 AM 33.8424 106.7227 70° East  Level Estimated
Thu 08:52:00 AM 33.8720 106.8188 70° East  Level Estimated
Thu 08:53:00 AM 33.9016 106.9149 70° East  Level Estimated
Thu 08:54:00 AM 33.9310 107.0111 70° East  Level Estimated
Thu 08:55:00 AM 33.9604 107.1074 70° East  Level Estimated
Thu 08:56:00 AM 33.9897 107.2038 70° East  Level Estimated
Thu 08:57:00 AM 34.0189 107.3002 70° East  Level Estimated
Thu 08:58:00 AM 34.0480 107.3967 70° East  Level Estimated
Thu 08:59:00 AM 34.0771 107.4933 70° East  Level Estimated
Thu 09:00:00 AM 34.1060 107.5899 70° East  Level Estimated
Thu 09:01:00 AM 34.1350 107.6866 70° East  Level Estimated
Thu 09:02:00 AM 34.1638 107.7834 70° East  Level Estimated
Thu 09:03:00 AM 34.1926 107.8802 70° East  Level Estimated
Thu 09:04:00 AM 34.2212 107.9771 70° East  Level Estimated
Thu 09:05:00 AM 34.2499 108.0740 70° East  Level Estimated
Thu 09:06:00 AM 34.2784 108.1711 70° East  Level Estimated
Thu 09:07:00 AM 34.3074 108.2700 70° East  Level Estimated
Thu 09:08:00 AM 34.3363 108.3690 70° East  Level Estimated
Thu 09:09:00 AM 34.3652 108.4681 71° East  Level Estimated
Thu 09:10:00 AM 34.3939 108.5673 71° East  Level Estimated
Thu 09:11:00 AM 34.4226 108.6665 71° East  Level Estimated
Thu 09:12:00 AM 34.4471 108.7516 71° East  Level Estimated
Thu 09:13:00 AM 34.4471 108.7516 121° Southeast  Level Estimated
Thu 09:14:00 AM 34.4471 108.7516 121° Southeast  Level Estimated
Thu 09:15:00 AM 34.4471 108.7516 121° Southeast  Level Estimated
Thu 09:16:00 AM 34.4471 108.7516 121° Southeast  Level Estimated
Thu 09:17:00 AM 34.4471 108.7516 121° Southeast  Level Estimated
Thu 09:18:00 AM 34.4471 108.7516 121° Southeast  Level Estimated
Thu 09:19:00 AM 34.4471 108.7516 121° Southeast  Level Estimated
Thu 09:20:00 AM 34.4471 108.7516 121° Southeast  Level Estimated
Thu 09:21:00 AM 34.4471 108.7516 121° Southeast  Level Estimated
Thu 09:22:00 AM 34.4471 108.7516 121° Southeast  Level Estimated
Thu 09:23:00 AM 34.4471 108.7516 121° Southeast  Level Estimated
Thu 09:24:00 AM 34.4471 108.7516 121° Southeast  Level Estimated
Thu 09:25:00 AM 34.4471 108.7516 121° Southeast  Level Estimated
Thu 09:26:00 AM 34.4471 108.7516 121° Southeast  Level Estimated
Thu 09:27:00 AM 34.4471 108.7516 121° Southeast  Level Estimated
Thu 09:28:00 AM 34.4471 108.7516 121° Southeast  Level Estimated
Thu 09:29:00 AM 34.4471 108.7516 121° Southeast  Level Estimated
Thu 09:30:00 AM 34.4471 108.7516 121° Southeast  Level Estimated
Thu 09:31:00 AM 34.4471 108.7516 121° Southeast  Level Estimated
Thu 09:32:00 AM 34.4471 108.7516 121° Southeast  Level Estimated
Thu 09:33:00 AM 34.4471 108.7516 121° Southeast  Level Estimated
Thu 09:34:00 AM 34.4471 108.7516 121° Southeast  Level Estimated
Thu 09:35:00 AM 34.4471 108.7516 121° Southeast  Level Estimated

Login

Don't have an account? Register now (free) for customized features, flight alerts, and more!